createdAt,value
2023-04-05T00:00:12.135Z,99984.24
2023-04-05T00:01:17.493Z,99975.91
2023-04-05T00:02:21.854Z,99978.61
2023-04-05T00:03:27.762Z,99975.33
2023-04-05T00:04:33.677Z,99978.20
2023-04-05T00:05:38.424Z,99974.51
2023-04-05T00:06:42.561Z,99975.33
2023-04-05T00:07:48.096Z,99968.73
2023-04-05T00:08:51.294Z,99976.30
2023-04-05T00:09:54.537Z,99969.08
2023-04-05T00:10:59.815Z,99966.75
2023-04-05T00:12:02.380Z,99960.05
2023-04-05T00:13:06.095Z,99960.77
2023-04-05T00:14:09.219Z,99968.86
2023-04-05T00:15:15.735Z,99962.17
2023-04-05T00:16:19.779Z,99958.66
2023-04-05T00:17:25.923Z,99954.50
2023-04-05T00:18:31.244Z,99960.62
2023-04-05T00:19:37.325Z,99960.77
2023-04-05T00:20:41.113Z,99967.30
2023-04-05T00:21:44.913Z,99959.83
2023-04-05T00:22:50.386Z,99959.45
2023-04-05T00:23:58.301Z,99961.44
2023-04-05T00:25:01.667Z,99956.89
2023-04-05T00:26:04.990Z,99961.61
2023-04-05T00:27:08.753Z,99956.45
2023-04-05T00:28:12.397Z,99955.25
2023-04-05T00:29:15.803Z,99951.48
2023-04-05T00:30:21.181Z,99960.77
2023-04-05T00:31:25.900Z,99961.16
2023-04-05T00:32:30.540Z,99961.55
2023-04-05T00:33:34.414Z,99966.48
2023-04-05T00:34:37.451Z,99957.31
2023-04-05T00:35:41.057Z,99955.14
2023-04-05T00:36:43.768Z,99960.09
2023-04-05T00:37:46.995Z,99960.30
2023-04-05T00:38:52.566Z,99949.23
2023-04-05T00:39:57.864Z,99948.70
2023-04-05T00:41:01.256Z,99949.41
2023-04-05T00:42:06.424Z,99946.44
2023-04-05T00:43:09.825Z,99942.09
2023-04-05T00:44:14.335Z,99944.37
2023-04-05T00:45:17.167Z,99946.75
2023-04-05T00:46:20.940Z,99936.37
2023-04-05T00:47:25.780Z,99937.94
2023-04-05T00:48:29.636Z,99935.69
2023-04-05T00:49:34.815Z,99930.36
2023-04-05T00:50:38.578Z,99924.95
2023-04-05T00:51:42.741Z,99929.55
2023-04-05T00:52:48.838Z,99921.65
2023-04-05T00:53:54.589Z,99930.72
2023-04-05T00:54:58.784Z,99924.70
2023-04-05T00:56:02.735Z,99926.48
2023-04-05T00:57:07.609Z,99932.42
2023-04-05T00:58:11.144Z,99925.45
2023-04-05T00:59:15.727Z,99934.20
2023-04-05T01:00:21.448Z,99934.30
2023-04-05T01:01:26.899Z,99929.36
2023-04-05T01:02:33.496Z,99925.23
2023-04-05T01:03:40.243Z,99932.28
2023-04-05T01:04:46.278Z,99926.88
2023-04-05T01:05:53.498Z,99925.87
2023-04-05T01:07:02.340Z,99926.23
2023-04-05T01:08:21.198Z,99931.36
2023-04-05T01:09:32.117Z,99921.61
2023-04-05T01:10:38.924Z,99916.70
2023-04-05T01:11:43.418Z,99924.06
2023-04-05T01:12:47.042Z,99922.36
2023-04-05T01:13:50.466Z,99916.84
2023-04-05T01:14:56.320Z,99918.63
2023-04-05T01:15:59.685Z,99919.27
2023-04-05T01:17:02.822Z,99910.30
2023-04-05T01:18:05.723Z,99910.84
2023-04-05T01:19:09.536Z,99912.91
2023-04-05T01:20:16.911Z,99904.23
2023-04-05T01:21:25.180Z,99908.20
2023-04-05T01:22:48.440Z,99911.13
2023-04-05T01:23:56.418Z,99902.31
2023-04-05T01:25:04.106Z,99910.06
2023-04-05T01:26:17.911Z,99906.54
2023-04-05T01:27:23.580Z,99913.36
2023-04-05T01:28:44.609Z,99917.70
2023-04-05T01:29:53.012Z,99905.76
2023-04-05T01:31:01.359Z,99910.16
2023-04-05T01:32:08.918Z,99904.55
2023-04-05T01:33:17.122Z,99901.60
2023-04-05T01:34:28.461Z,99899.61
2023-04-05T01:35:39.701Z,99903.23
2023-04-05T01:36:54.900Z,99899.75
2023-04-05T01:38:05.600Z,99903.16
2023-04-05T01:39:10.048Z,99896.59
2023-04-05T01:40:14.596Z,99897.58
2023-04-05T01:41:18.201Z,99893.70
2023-04-05T01:42:26.139Z,99891.54
2023-04-05T01:43:29.489Z,99886.42
2023-04-05T01:44:32.901Z,99887.98
2023-04-05T01:45:35.967Z,99888.52
2023-04-05T01:46:42.746Z,99888.63
2023-04-05T01:47:46.990Z,99885.42
2023-04-05T01:48:50.679Z,99886.23
2023-04-05T01:49:59.273Z,99890.02
2023-04-05T01:51:03.331Z,99889.65
2023-04-05T01:52:09.369Z,99886.06
2023-04-05T01:53:12.846Z,99881.05
2023-04-05T01:54:17.433Z,99877.00
2023-04-05T01:55:22.684Z,99883.05
2023-04-05T01:56:25.987Z,99877.18
2023-04-05T01:57:29.581Z,99881.23
2023-04-05T01:58:33.087Z,99877.61
2023-04-05T01:59:38.492Z,99878.63
2023-04-05T02:00:43.241Z,99876.93
2023-04-05T02:01:47.675Z,99881.23
2023-04-05T02:02:49.999Z,99871.56
2023-04-05T02:03:57.816Z,99871.70
2023-04-05T02:05:04.670Z,99872.20
2023-04-05T02:06:08.518Z,99876.00
2023-04-05T02:07:13.665Z,99868.26
2023-04-05T02:08:18.280Z,99855.17
2023-04-05T02:09:23.038Z,99859.52
2023-04-05T02:10:26.369Z,99858.77
2023-04-05T02:11:31.128Z,99864.77
2023-04-05T02:12:36.024Z,99860.55
2023-04-05T02:13:40.867Z,99866.27
2023-04-05T02:14:44.245Z,99864.95
2023-04-05T02:15:51.221Z,99852.96
2023-04-05T02:16:55.339Z,99861.22
2023-04-05T02:18:01.490Z,99859.91
2023-04-05T02:19:06.421Z,99853.23
2023-04-05T02:20:13.286Z,99855.86
2023-04-05T02:21:17.703Z,99852.94
2023-04-05T02:22:24.207Z,99850.38
2023-04-05T02:23:29.776Z,99844.34
2023-04-05T02:24:36.378Z,99838.02
2023-04-05T02:25:41.137Z,99836.52
2023-04-05T02:26:44.639Z,99828.88
2023-04-05T02:27:49.283Z,99829.98
2023-04-05T02:28:53.854Z,99831.75
2023-04-05T02:30:00.646Z,99836.59
2023-04-05T02:31:05.960Z,99846.37
2023-04-05T02:32:08.996Z,99835.45
2023-04-05T02:33:14.344Z,99838.94
2023-04-05T02:34:18.564Z,99827.56
2023-04-05T02:35:22.542Z,99825.16
2023-04-05T02:36:28.329Z,99826.49
2023-04-05T02:37:30.815Z,99827.63
2023-04-05T02:38:36.118Z,99831.52
2023-04-05T02:39:39.863Z,99829.56
2023-04-05T02:40:42.686Z,99834.75
2023-04-05T02:41:49.074Z,99822.30
2023-04-05T02:42:53.205Z,99823.61
2023-04-05T02:43:56.702Z,99830.91
2023-04-05T02:44:59.167Z,99824.31
2023-04-05T02:46:04.284Z,99826.80
2023-04-05T02:47:09.091Z,99829.98
2023-04-05T02:48:12.295Z,99825.49
2023-04-05T02:49:16.303Z,99819.20
2023-04-05T02:50:21.333Z,99807.08
2023-04-05T02:51:26.798Z,99817.67
2023-04-05T02:52:33.021Z,99812.48
2023-04-05T02:53:36.600Z,99813.42
2023-04-05T02:54:41.877Z,99817.58
2023-04-05T02:55:56.352Z,99815.35
2023-04-05T02:57:01.104Z,99817.91
2023-04-05T02:58:05.439Z,99810.79
2023-04-05T02:59:16.834Z,99813.64
2023-04-05T03:00:21.442Z,99823.02
2023-04-05T03:01:24.361Z,99820.61
2023-04-05T03:02:28.682Z,99817.69
2023-04-05T03:03:32.704Z,99818.91
2023-04-05T03:04:36.809Z,99825.47
2023-04-05T03:05:39.518Z,99822.09
2023-04-05T03:06:45.968Z,99830.28
2023-04-05T03:07:51.290Z,99827.36
2023-04-05T03:08:56.794Z,99823.02
2023-04-05T03:10:02.318Z,99825.66
2023-04-05T03:11:06.197Z,99823.88
2023-04-05T03:12:10.409Z,99827.88
2023-04-05T03:13:15.618Z,99831.98
2023-04-05T03:14:19.844Z,99824.72
2023-04-05T03:15:23.672Z,99813.34
2023-04-05T03:16:29.339Z,99814.50
2023-04-05T03:17:32.146Z,99825.47
2023-04-05T03:18:39.173Z,99815.98
2023-04-05T03:19:46.152Z,99817.13
2023-04-05T03:21:00.107Z,99818.98
2023-04-05T03:22:03.728Z,99824.72
2023-04-05T03:23:09.833Z,99813.80
2023-04-05T03:24:13.656Z,99821.06
2023-04-05T03:25:19.072Z,99817.76
2023-04-05T03:26:25.147Z,99826.65
2023-04-05T03:27:31.045Z,99824.46
2023-04-05T03:28:49.630Z,99830.27
2023-04-05T03:29:53.021Z,99811.94
2023-04-05T03:30:57.028Z,99818.91
2023-04-05T03:32:01.035Z,99816.50
2023-04-05T03:33:05.128Z,99812.42
2023-04-05T03:34:13.396Z,99817.69
2023-04-05T03:35:22.195Z,99822.95
2023-04-05T03:36:25.937Z,99824.39
2023-04-05T03:37:29.433Z,99822.61
2023-04-05T03:38:40.246Z,99815.91
2023-04-05T03:39:50.150Z,99816.72
2023-04-05T03:40:53.476Z,99819.13
2023-04-05T03:41:57.752Z,99825.25
2023-04-05T03:43:01.004Z,99831.06
2023-04-05T03:44:05.509Z,99826.88
2023-04-05T03:45:11.526Z,99825.47
2023-04-05T03:46:15.803Z,99824.24
2023-04-05T03:47:19.162Z,99831.14
2023-04-05T03:48:23.399Z,99832.84
2023-04-05T03:49:27.112Z,99834.92
2023-04-05T03:50:32.421Z,99830.28
2023-04-05T03:51:36.127Z,99827.73
2023-04-05T03:52:40.538Z,99839.89
2023-04-05T03:53:44.370Z,99830.66
2023-04-05T03:54:48.598Z,99840.03
2023-04-05T03:55:53.972Z,99839.58
2023-04-05T03:57:00.529Z,99835.06
2023-04-05T03:58:05.386Z,99834.92
2023-04-05T03:59:10.715Z,99835.25
2023-04-05T04:00:14.472Z,99839.18
2023-04-05T04:01:23.531Z,99838.63
2023-04-05T04:02:28.719Z,99834.39
2023-04-05T04:03:32.520Z,99833.62
2023-04-05T04:04:36.486Z,99832.52
2023-04-05T04:05:41.672Z,99834.06
2023-04-05T04:06:46.040Z,99832.62
2023-04-05T04:07:50.861Z,99836.55
2023-04-05T04:08:54.952Z,99829.36
2023-04-05T04:10:00.061Z,99826.32
2023-04-05T04:11:03.324Z,99824.47
2023-04-05T04:12:14.348Z,99821.98
2023-04-05T04:13:21.257Z,99820.91
2023-04-05T04:14:27.344Z,99825.87
2023-04-05T04:15:41.202Z,99825.17
2023-04-05T04:17:10.236Z,99825.25
2023-04-05T04:18:25.121Z,99828.58
2023-04-05T04:19:34.019Z,99820.61
2023-04-05T04:20:39.305Z,99813.80
2023-04-05T04:21:46.232Z,99821.20
2023-04-05T04:22:53.375Z,99817.20
2023-04-05T04:24:16.921Z,99819.28
2023-04-05T04:25:24.053Z,99821.31
2023-04-05T04:26:35.134Z,99828.20
2023-04-05T04:27:48.165Z,99817.50
2023-04-05T04:29:13.565Z,99819.20
2023-04-05T04:30:23.032Z,99820.05
2023-04-05T04:31:47.022Z,99810.08
2023-04-05T04:32:59.751Z,99810.08
2023-04-05T04:34:10.714Z,99803.31
2023-04-05T04:35:36.378Z,99804.31
2023-04-05T04:37:03.229Z,99799.77
2023-04-05T04:38:26.832Z,99809.38
2023-04-05T04:39:46.414Z,99806.68
2023-04-05T04:40:54.583Z,99796.70
2023-04-05T04:42:02.892Z,99801.20
2023-04-05T04:43:27.848Z,99798.71
2023-04-05T04:44:32.506Z,99798.41
2023-04-05T04:45:38.576Z,99803.97
2023-04-05T04:46:43.758Z,99808.90
2023-04-05T04:47:58.649Z,99811.16
2023-04-05T04:49:06.717Z,99808.68
2023-04-05T04:50:12.593Z,99815.27
2023-04-05T04:51:18.446Z,99809.86
2023-04-05T04:52:22.162Z,99815.94
2023-04-05T04:53:24.973Z,99815.27
2023-04-05T04:54:29.338Z,99816.50
2023-04-05T04:55:33.912Z,99820.53
2023-04-05T04:56:37.379Z,99813.57
2023-04-05T04:57:43.026Z,99816.13
2023-04-05T04:58:46.376Z,99813.94
2023-04-05T04:59:49.981Z,99812.31
2023-04-05T05:00:53.934Z,99811.09
2023-04-05T05:01:57.208Z,99805.05
2023-04-05T05:03:00.457Z,99808.16
2023-04-05T05:04:04.640Z,99807.02
2023-04-05T05:05:11.162Z,99806.89
2023-04-05T05:06:15.170Z,99807.59
2023-04-05T05:07:20.818Z,99810.45
2023-04-05T05:08:25.533Z,99812.78
2023-04-05T05:09:29.806Z,99806.95
2023-04-05T05:10:36.312Z,99810.05
2023-04-05T05:11:41.792Z,99811.00
2023-04-05T05:12:46.785Z,99803.46
2023-04-05T05:13:53.281Z,99810.61
2023-04-05T05:14:59.865Z,99800.85
2023-04-05T05:16:05.120Z,99799.39
2023-04-05T05:17:09.141Z,99798.38
2023-04-05T05:18:12.029Z,99791.72
2023-04-05T05:19:15.425Z,99788.94
2023-04-05T05:20:23.814Z,99794.64
2023-04-05T05:21:28.597Z,99796.61
2023-04-05T05:22:34.089Z,99793.91
2023-04-05T05:23:37.385Z,99802.22
2023-04-05T05:24:40.993Z,99797.77
2023-04-05T05:25:44.876Z,99794.91
2023-04-05T05:26:51.262Z,99799.75
2023-04-05T05:27:55.592Z,99804.55
2023-04-05T05:29:03.672Z,99804.59
2023-04-05T05:30:10.215Z,99798.31
2023-04-05T05:31:17.830Z,99804.98
2023-04-05T05:32:23.912Z,99808.85
2023-04-05T05:33:27.636Z,99802.81
2023-04-05T05:34:31.757Z,99798.16
2023-04-05T05:35:35.592Z,99806.30
2023-04-05T05:36:37.928Z,99798.27
2023-04-05T05:37:44.941Z,99795.28
2023-04-05T05:38:49.029Z,99791.38
2023-04-05T05:39:53.370Z,99797.27
2023-04-05T05:40:58.332Z,99791.42
2023-04-05T05:42:00.974Z,99784.06
2023-04-05T05:43:04.906Z,99788.67
2023-04-05T05:44:08.625Z,99791.91
2023-04-05T05:45:12.148Z,99792.16
2023-04-05T05:46:15.825Z,99792.09
2023-04-05T05:47:22.344Z,99794.31
2023-04-05T05:48:25.532Z,99798.38
2023-04-05T05:49:29.073Z,99800.00
2023-04-05T05:50:35.508Z,99800.23
2023-04-05T05:51:39.103Z,99794.36
2023-04-05T05:52:42.188Z,99801.03
2023-04-05T05:53:44.764Z,99794.99
2023-04-05T05:54:48.098Z,99795.84
2023-04-05T05:55:59.504Z,99788.88
2023-04-05T05:57:03.114Z,99795.45
2023-04-05T05:58:08.603Z,99794.67
2023-04-05T05:59:15.039Z,99803.86
2023-04-05T06:00:21.986Z,99798.27
2023-04-05T06:01:26.409Z,99794.67
2023-04-05T06:02:28.765Z,99795.80
2023-04-05T06:03:33.226Z,99794.39
2023-04-05T06:04:37.096Z,99785.30
2023-04-05T06:05:41.495Z,99785.86
2023-04-05T06:06:46.809Z,99784.64
2023-04-05T06:07:50.177Z,99781.44
2023-04-05T06:08:53.814Z,99785.33
2023-04-05T06:09:57.291Z,99774.70
2023-04-05T06:11:01.214Z,99767.33
2023-04-05T06:12:05.138Z,99779.86
2023-04-05T06:13:10.756Z,99774.67
2023-04-05T06:14:14.240Z,99773.22
2023-04-05T06:15:19.985Z,99773.61
2023-04-05T06:16:22.507Z,99776.94
2023-04-05T06:17:26.024Z,99772.77
2023-04-05T06:18:29.614Z,99771.38
2023-04-05T06:19:33.640Z,99768.91
2023-04-05T06:20:41.282Z,99776.05
2023-04-05T06:21:44.781Z,99770.42
2023-04-05T06:22:49.393Z,99769.88
2023-04-05T06:23:55.900Z,99763.07
2023-04-05T06:24:59.637Z,99763.15
2023-04-05T06:26:03.610Z,99763.63
2023-04-05T06:27:07.312Z,99760.74
2023-04-05T06:28:10.571Z,99767.24
2023-04-05T06:29:14.062Z,99760.92
2023-04-05T06:30:18.297Z,99769.03
2023-04-05T06:31:23.705Z,99768.50
2023-04-05T06:32:28.307Z,99766.16
2023-04-05T06:33:31.662Z,99766.97
2023-04-05T06:34:35.776Z,99771.30
2023-04-05T06:35:39.381Z,99769.11
2023-04-05T06:36:43.504Z,99775.02
2023-04-05T06:37:47.009Z,99774.28
2023-04-05T06:38:50.634Z,99773.77
2023-04-05T06:39:54.186Z,99770.37
2023-04-05T06:40:57.408Z,99766.39
2023-04-05T06:42:00.822Z,99761.86
2023-04-05T06:43:04.749Z,99763.75
2023-04-05T06:44:08.547Z,99760.76
2023-04-05T06:45:12.497Z,99765.09
2023-04-05T06:46:16.333Z,99758.80
2023-04-05T06:47:18.751Z,99754.84
2023-04-05T06:48:22.604Z,99756.94
2023-04-05T06:49:25.891Z,99754.22
2023-04-05T06:50:30.423Z,99753.74
2023-04-05T06:51:33.759Z,99764.58
2023-04-05T06:52:36.080Z,99751.28
2023-04-05T06:53:41.247Z,99755.79
2023-04-05T06:54:45.598Z,99758.63
2023-04-05T06:55:51.385Z,99753.52
2023-04-05T06:56:54.901Z,99758.17
2023-04-05T06:57:58.410Z,99760.05
2023-04-05T06:59:02.598Z,99759.88
2023-04-05T07:00:10.110Z,99761.32
2023-04-05T07:01:13.405Z,99769.83
2023-04-05T07:02:16.080Z,99768.12
2023-04-05T07:03:19.797Z,99770.27
2023-04-05T07:04:22.856Z,99762.22
2023-04-05T07:05:26.494Z,99766.86
2023-04-05T07:06:29.044Z,99764.59
2023-04-05T07:07:32.875Z,99765.48
2023-04-05T07:08:36.585Z,99769.70
2023-04-05T07:09:40.123Z,99762.94
2023-04-05T07:10:43.584Z,99763.96
2023-04-05T07:11:46.894Z,99768.86
2023-04-05T07:12:52.412Z,99758.77
2023-04-05T07:13:55.717Z,99769.02
2023-04-05T07:14:59.291Z,99759.66
2023-04-05T07:16:03.588Z,99764.69
2023-04-05T07:17:09.018Z,99758.80
2023-04-05T07:18:13.356Z,99762.12
2023-04-05T07:19:17.075Z,99760.23
2023-04-05T07:20:20.348Z,99762.79
2023-04-05T07:21:23.798Z,99757.48
2023-04-05T07:22:27.681Z,99768.09
2023-04-05T07:23:31.957Z,99766.05
2023-04-05T07:24:36.426Z,99766.16
2023-04-05T07:25:41.829Z,99765.52
2023-04-05T07:26:46.514Z,99776.28
2023-04-05T07:27:50.024Z,99768.80
2023-04-05T07:28:54.079Z,99770.64
2023-04-05T07:29:58.402Z,99767.03
2023-04-05T07:31:05.655Z,99770.00
2023-04-05T07:32:13.583Z,99761.22
2023-04-05T07:33:17.492Z,99758.48
2023-04-05T07:34:20.651Z,99759.23
2023-04-05T07:35:22.837Z,99761.02
2023-04-05T07:36:27.666Z,99756.02
2023-04-05T07:37:30.964Z,99750.64
2023-04-05T07:38:34.579Z,99752.80
2023-04-05T07:39:38.080Z,99764.80
2023-04-05T07:40:43.183Z,99771.77
2023-04-05T07:41:46.655Z,99771.03
2023-04-05T07:42:49.244Z,99767.24
2023-04-05T07:43:53.909Z,99767.61
2023-04-05T07:44:57.262Z,99758.17
2023-04-05T07:46:04.156Z,99762.24
2023-04-05T07:47:08.981Z,99758.09
2023-04-05T07:48:14.377Z,99768.02
2023-04-05T07:49:18.942Z,99764.62
2023-04-05T07:50:25.059Z,99771.51
2023-04-05T07:51:28.641Z,99768.38
2023-04-05T07:52:32.032Z,99762.16
2023-04-05T07:53:36.061Z,99760.09
2023-04-05T07:54:40.898Z,99756.70
2023-04-05T07:55:45.275Z,99770.84
2023-04-05T07:56:51.464Z,99770.44
2023-04-05T07:57:55.933Z,99769.12
2023-04-05T07:59:00.154Z,99769.97
2023-04-05T08:00:05.066Z,99772.05
2023-04-05T08:01:12.899Z,99776.28
2023-04-05T08:02:16.609Z,99778.16
2023-04-05T08:03:19.396Z,99769.09
2023-04-05T08:04:24.993Z,99767.69
2023-04-05T08:05:28.601Z,99777.98
2023-04-05T08:06:31.101Z,99781.64
2023-04-05T08:07:34.262Z,99776.45
2023-04-05T08:08:39.857Z,99785.11
2023-04-05T08:09:43.286Z,99787.34
2023-04-05T08:10:46.880Z,99786.36
2023-04-05T08:11:51.637Z,99787.10
2023-04-05T08:12:54.731Z,99783.26
2023-04-05T08:13:58.129Z,99792.99
2023-04-05T08:15:01.643Z,99790.84
2023-04-05T08:16:05.249Z,99794.89
2023-04-05T08:17:12.842Z,99789.59
2023-04-05T08:18:18.408Z,99789.67
2023-04-05T08:19:22.230Z,99784.89
2023-04-05T08:20:25.826Z,99787.98
2023-04-05T08:21:29.451Z,99783.72
2023-04-05T08:22:32.847Z,99784.22
2023-04-05T08:23:36.175Z,99785.42
2023-04-05T08:24:39.799Z,99782.07
2023-04-05T08:25:45.457Z,99790.63
2023-04-05T08:26:50.852Z,99785.36
2023-04-05T08:27:53.940Z,99783.96
2023-04-05T08:28:57.324Z,99778.68
2023-04-05T08:30:01.529Z,99779.44
2023-04-05T08:31:06.740Z,99776.41
2023-04-05T08:32:12.787Z,99778.77
2023-04-05T08:33:15.735Z,99774.70
2023-04-05T08:34:19.243Z,99776.22
2023-04-05T08:35:22.244Z,99776.98
2023-04-05T08:36:26.363Z,99782.63
2023-04-05T08:37:32.357Z,99783.02
2023-04-05T08:38:36.340Z,99783.48
2023-04-05T08:39:38.639Z,99784.23
2023-04-05T08:40:46.846Z,99780.29
2023-04-05T08:41:58.658Z,99778.28
2023-04-05T08:43:06.811Z,99775.37
2023-04-05T08:44:10.815Z,99771.97
2023-04-05T08:45:14.537Z,99770.48
2023-04-05T08:46:19.450Z,99775.19
2023-04-05T08:47:24.334Z,99771.60
2023-04-05T08:48:32.169Z,99772.91
2023-04-05T08:49:36.087Z,99768.47
2023-04-05T08:50:43.070Z,99773.20
2023-04-05T08:51:47.485Z,99774.69
2023-04-05T08:52:56.351Z,99772.61
2023-04-05T08:54:02.774Z,99776.39
2023-04-05T08:55:08.069Z,99772.81
2023-04-05T08:56:12.465Z,99776.97
2023-04-05T08:57:18.219Z,99766.66
2023-04-05T08:58:23.027Z,99767.90
2023-04-05T08:59:27.304Z,99769.95
2023-04-05T09:00:30.888Z,99765.92
2023-04-05T09:01:35.936Z,99769.09
2023-04-05T09:02:39.745Z,99775.05
2023-04-05T09:03:43.928Z,99771.45
2023-04-05T09:04:49.315Z,99770.27
2023-04-05T09:05:55.066Z,99768.34
2023-04-05T09:07:01.004Z,99768.97
2023-04-05T09:08:05.135Z,99769.02
2023-04-05T09:09:09.268Z,99765.53
2023-04-05T09:10:13.501Z,99768.72
2023-04-05T09:11:18.890Z,99773.34
2023-04-05T09:12:22.608Z,99767.93
2023-04-05T09:13:26.421Z,99769.16
2023-04-05T09:14:31.181Z,99773.16
2023-04-05T09:15:37.610Z,99768.81
2023-04-05T09:16:42.620Z,99769.16
2023-04-05T09:17:45.718Z,99768.40
2023-04-05T09:18:49.746Z,99770.44
2023-04-05T09:19:52.672Z,99771.38
2023-04-05T09:21:06.437Z,99767.41
2023-04-05T09:22:12.852Z,99768.55
2023-04-05T09:23:16.686Z,99770.09
2023-04-05T09:24:37.081Z,99768.78
2023-04-05T09:25:43.119Z,99768.62
2023-04-05T09:26:45.659Z,99769.73
2023-04-05T09:27:57.097Z,99766.96
2023-04-05T09:29:00.689Z,99767.08
2023-04-05T09:30:05.896Z,99760.72
2023-04-05T09:31:11.090Z,99769.41
2023-04-05T09:32:24.989Z,99763.47
2023-04-05T09:33:30.514Z,99763.98
2023-04-05T09:34:34.736Z,99754.58
2023-04-05T09:35:38.786Z,99762.67
2023-04-05T09:36:44.811Z,99750.00
2023-04-05T09:37:52.464Z,99763.95
2023-04-05T09:38:57.853Z,99757.42
2023-04-05T09:40:08.311Z,99758.20
2023-04-05T09:41:12.170Z,99762.13
2023-04-05T09:42:17.805Z,99757.83
2023-04-05T09:43:39.867Z,99759.22
2023-04-05T09:44:51.837Z,99752.03
2023-04-05T09:45:55.356Z,99765.08
2023-04-05T09:46:57.758Z,99753.62
2023-04-05T09:48:03.110Z,99752.14
2023-04-05T09:49:07.838Z,99753.50
2023-04-05T09:50:17.519Z,99747.88
2023-04-05T09:51:21.832Z,99749.37
2023-04-05T09:52:26.702Z,99745.12
2023-04-05T09:53:29.800Z,99744.61
2023-04-05T09:54:36.521Z,99741.87
2023-04-05T09:55:42.685Z,99745.16
2023-04-05T09:56:47.078Z,99747.48
2023-04-05T09:57:50.605Z,99737.00
2023-04-05T09:58:53.391Z,99746.64
2023-04-05T09:59:57.598Z,99748.75
2023-04-05T10:01:06.719Z,99745.79
2023-04-05T10:03:15.371Z,99743.89
2023-04-05T10:04:22.594Z,99744.20
2023-04-05T10:05:26.845Z,99751.63
2023-04-05T10:06:40.087Z,99741.55
2023-04-05T10:07:43.230Z,99739.39
2023-04-05T10:08:47.053Z,99750.85
2023-04-05T10:09:51.321Z,99736.56
2023-04-05T10:10:54.426Z,99738.09
2023-04-05T10:11:57.600Z,99734.20
2023-04-05T10:13:00.358Z,99740.00
2023-04-05T10:14:05.112Z,99735.52
2023-04-05T10:15:11.378Z,99743.00
2023-04-05T10:16:15.825Z,99740.80
2023-04-05T10:17:25.849Z,99740.70
2023-04-05T10:18:30.090Z,99744.30
2023-04-05T10:19:34.640Z,99752.44
2023-04-05T10:20:43.369Z,99736.86
2023-04-05T10:21:50.945Z,99730.81
2023-04-05T10:23:04.572Z,99737.58
2023-04-05T10:24:12.259Z,99737.50
2023-04-05T10:25:26.106Z,99734.02
2023-04-05T10:26:43.396Z,99744.00
2023-04-05T10:27:49.636Z,99741.41
2023-04-05T10:28:53.952Z,99737.69
2023-04-05T10:30:01.242Z,99739.22
2023-04-05T10:31:36.355Z,99726.75
2023-04-05T10:32:32.657Z,99732.44
2023-04-05T10:33:45.255Z,99738.84
2023-04-05T10:34:55.443Z,99731.27
2023-04-05T10:36:09.258Z,99725.84
2023-04-05T10:37:15.947Z,99732.48
2023-04-05T10:38:21.468Z,99725.08
2023-04-05T10:39:32.209Z,99740.38
2023-04-05T10:40:40.927Z,99734.55
2023-04-05T10:41:52.494Z,99740.60
2023-04-05T10:42:55.187Z,99736.72
2023-04-05T10:43:59.525Z,99735.09
2023-04-05T10:45:05.484Z,99737.41
2023-04-05T10:46:08.960Z,99733.41
2023-04-05T10:47:14.251Z,99732.25
2023-04-05T10:48:20.545Z,99740.61
2023-04-05T10:49:26.141Z,99746.52
2023-04-05T10:50:33.288Z,99735.70
2023-04-05T10:51:38.329Z,99737.11
2023-04-05T10:52:41.026Z,99741.77
2023-04-05T10:53:44.700Z,99733.92
2023-04-05T10:54:49.814Z,99732.27
2023-04-05T10:55:55.672Z,99732.56
2023-04-05T10:57:02.789Z,99733.70
2023-04-05T10:58:06.886Z,99734.73
2023-04-05T10:59:11.124Z,99731.34
2023-04-05T11:00:16.347Z,99738.27
2023-04-05T11:01:21.286Z,99739.03
2023-04-05T11:02:24.962Z,99733.61
2023-04-05T11:03:50.515Z,99737.61
2023-04-05T11:04:55.433Z,99735.36
2023-04-05T11:06:02.059Z,99732.05
2023-04-05T11:07:13.598Z,99727.70
2023-04-05T11:08:17.317Z,99739.86
2023-04-05T11:09:21.579Z,99736.62
2023-04-05T11:10:24.794Z,99733.89
2023-04-05T11:11:28.457Z,99738.61
2023-04-05T11:12:50.035Z,99730.81
2023-04-05T11:13:55.282Z,99728.52
2023-04-05T11:15:00.442Z,99727.73
2023-04-05T11:16:08.911Z,99727.31
2023-04-05T11:17:17.329Z,99735.84
2023-04-05T11:18:22.339Z,99727.62
2023-04-05T11:19:46.366Z,99732.41
2023-04-05T11:20:57.287Z,99729.98
2023-04-05T11:22:04.303Z,99733.19
2023-04-05T11:23:07.687Z,99724.74
2023-04-05T11:24:14.838Z,99731.27
2023-04-05T11:25:25.207Z,99726.95
2023-04-05T11:26:33.654Z,99732.75
2023-04-05T11:27:40.163Z,99730.68
2023-04-05T11:28:43.565Z,99724.97
2023-04-05T11:29:48.630Z,99724.13
2023-04-05T11:30:53.454Z,99735.10
2023-04-05T11:32:00.675Z,99726.26
2023-04-05T11:33:06.266Z,99724.45
2023-04-05T11:34:11.620Z,99724.26
2023-04-05T11:35:16.199Z,99735.28
2023-04-05T11:36:21.661Z,99723.89
2023-04-05T11:37:25.910Z,99732.89
2023-04-05T11:38:29.307Z,99727.18
2023-04-05T11:39:32.816Z,99724.13
2023-04-05T11:40:36.359Z,99721.65
2023-04-05T11:41:42.243Z,99726.48
2023-04-05T11:42:45.777Z,99728.47
2023-04-05T11:43:49.131Z,99719.66
2023-04-05T11:44:54.964Z,99725.70
2023-04-05T11:45:58.236Z,99715.30
2023-04-05T11:47:04.230Z,99718.88
2023-04-05T11:48:13.468Z,99716.89
2023-04-05T11:49:17.339Z,99722.27
2023-04-05T11:50:23.950Z,99717.84
2023-04-05T11:51:29.380Z,99717.34
2023-04-05T11:52:32.839Z,99703.75
2023-04-05T11:53:36.443Z,99703.82
2023-04-05T11:54:43.145Z,99709.77
2023-04-05T11:55:54.327Z,99717.36
2023-04-05T11:56:58.653Z,99702.64
2023-04-05T11:58:02.479Z,99702.99
2023-04-05T11:59:06.200Z,99707.61
2023-04-05T12:00:10.007Z,99705.56
2023-04-05T12:01:14.552Z,99704.45
2023-04-05T12:02:17.325Z,99704.95
2023-04-05T12:03:21.638Z,99699.52
2023-04-05T12:04:25.256Z,99714.14
2023-04-05T12:05:30.766Z,99698.28
2023-04-05T12:06:33.993Z,99708.19
2023-04-05T12:07:37.151Z,99697.70
2023-04-05T12:08:48.634Z,99696.63
2023-04-05T12:10:09.063Z,99698.06
2023-04-05T12:11:13.668Z,99691.42
2023-04-05T12:12:17.598Z,99687.44
2023-04-05T12:13:27.653Z,99691.89
2023-04-05T12:14:32.016Z,99692.36
2023-04-05T12:15:40.765Z,99691.16
2023-04-05T12:16:50.334Z,99685.00
2023-04-05T12:17:54.054Z,99683.31
2023-04-05T12:18:58.371Z,99683.26
2023-04-05T12:20:01.461Z,99685.47
2023-04-05T12:21:08.035Z,99680.54
2023-04-05T12:22:12.645Z,99684.16
2023-04-05T12:23:16.985Z,99676.56
2023-04-05T12:24:20.897Z,99679.80
2023-04-05T12:25:24.688Z,99681.73
2023-04-05T12:26:29.472Z,99680.39
2023-04-05T12:27:34.431Z,99681.34
2023-04-05T12:28:55.728Z,99691.23
2023-04-05T12:30:17.352Z,99692.47
2023-04-05T12:31:39.215Z,99686.88
2023-04-05T12:32:47.451Z,99690.77
2023-04-05T12:33:51.229Z,99681.20
2023-04-05T12:34:56.273Z,99683.14
2023-04-05T12:35:59.670Z,99679.64
2023-04-05T12:37:03.853Z,99689.63
2023-04-05T12:38:08.488Z,99687.04
2023-04-05T12:39:11.029Z,99678.45
2023-04-05T12:40:15.263Z,99687.27
2023-04-05T12:41:20.848Z,99681.34
2023-04-05T12:42:24.255Z,99684.12
2023-04-05T12:43:27.134Z,99682.41
2023-04-05T12:44:31.375Z,99676.88
2023-04-05T12:45:44.550Z,99679.53
2023-04-05T12:46:48.499Z,99678.95
2023-04-05T12:47:59.459Z,99680.48
2023-04-05T12:49:03.665Z,99686.26
2023-04-05T12:50:16.345Z,99678.39
2023-04-05T12:51:19.867Z,99691.77
2023-04-05T12:52:23.691Z,99688.96
2023-04-05T12:53:30.403Z,99686.14